KSVN/SVN METAR and TAF weather

Enter ICAO airport designator
Station Type Date Time Source
KSVN METAR 2022/01/26 07:56 UTC NOAA

KSVN 260756Z 27004KT 10SM OVC100 09/06 A3005 RMK SLP NO


Station Type Date Time Source
KSVN Decoded METAR 2022/01/26 07:56 UTC NOAA

Hunter U. S. Army Airfield , GA, United States (KSVN) 32-01N 081-09W
Jan 26, 2022 - 02:56 AM EST / 2022.01.26 0756 UTC
Wind: from the W (270 degrees) at 5 MPH (4 KT):0
Visibility: 10 mile(s):0
Sky conditions: overcast
Temperature: 48 F (9 C)
Dew Point: 42 F (6 C)
Relative Humidity: 81%
Pressure (altimeter): 30.05 in. Hg (1017 hPa)
ob: KSVN 260756Z 27004KT 10SM OVC100 09/06 A3005 RMK SLP NO
cycle: 8

Station Type Date Time Source
KSVN TAF 2022/01/26 05:06 UTC NOAA

TAF KSVN 260500Z 2605/2711 VRB06KT 9999 SCT045 QNH3002INS
BECMG 2614/2615 03012G18KT 9999 SCT100 QNH3021INS
BECMG 2700/2701 05009KT 9999 SCT020 QNH3027INS
BECMG 2705/2706 04015G20KT 9999 BKN020 QNH3033INS
BECMG 2707/2708 04015G20KT 9999 SCT020 QNH3032INS TX11/2621Z TN03/2611Z

Example: see airport list